Time;durP1;ratioP1;P1;durP2;ratioP2;P2;SDS_P1;SDS_P2;PMS_P1;PMS_P2;Temp;Humidity;BMP_temperature;BMP_pressure;BME280_temperature;BME280_humidity;BME280_pressure;Samples;Min_cycle;Max_cycle;Signal;HPM_P1;HPM_P2
2022/07/11 00:00:08;;;;;;;4.25;1.05;;;20.20;93.30;;;;;;5094337;28;20027;-77
2022/07/11 00:02:34;;;;;;;6.78;1.00;;;20.20;93.30;;;;;;5095143;28;20482;-76
2022/07/11 00:04:59;;;;;;;4.28;1.00;;;20.10;93.40;;;;;;5095467;28;20036;-76
2022/07/11 00:07:25;;;;;;;5.28;0.90;;;20.10;93.50;;;;;;5095006;28;20016;-77
2022/07/11 00:09:51;;;;;;;4.05;0.98;;;20.10;93.90;;;;;;5095134;28;20077;-76
2022/07/11 00:12:20;;;;;;;6.20;1.25;;;20.00;93.70;;;;;;5098017;28;20024;-76
2022/07/11 00:14:45;;;;;;;3.63;1.15;;;20.00;93.70;;;;;;5110625;28;20027;-77
2022/07/11 00:17:11;;;;;;;4.32;0.80;;;20.00;93.60;;;;;;5097849;28;20016;-77
2022/07/11 00:19:38;;;;;;;3.70;0.50;;;20.10;93.40;;;;;;5094676;28;20042;-78
2022/07/11 00:22:05;;;;;;;4.63;0.85;;;20.10;93.40;;;;;;5094141;28;20032;-77
2022/07/11 00:24:30;;;;;;;2.95;0.60;;;20.20;93.30;;;;;;5094483;28;20036;-77
2022/07/11 00:26:56;;;;;;;3.95;0.65;;;20.20;93.10;;;;;;5094592;28;20024;-77
2022/07/11 00:29:22;;;;;;;3.30;0.73;;;20.30;93.00;;;;;;5094402;28;20016;-77
2022/07/11 00:31:47;;;;;;;2.30;0.60;;;20.30;93.00;;;;;;5094301;28;20035;-77
2022/07/11 00:34:14;;;;;;;4.57;0.70;;;20.30;92.90;;;;;;5094329;28;20039;-77
2022/07/11 00:36:40;;;;;;;7.15;1.23;;;20.40;92.90;;;;;;5094532;28;20024;-77
2022/07/11 00:39:06;;;;;;;4.53;0.88;;;20.40;92.90;;;;;;5094361;28;20035;-77
2022/07/11 00:41:31;;;;;;;6.75;0.82;;;20.40;92.90;;;;;;5093989;28;20012;-77
2022/07/11 00:43:59;;;;;;;5.25;1.17;;;20.40;93.10;;;;;;5094207;28;20030;-77
2022/07/11 00:46:27;;;;;;;5.07;0.70;;;20.30;93.10;;;;;;5093989;28;20109;-77
2022/07/11 00:48:53;;;;;;;4.13;0.70;;;20.40;93.10;;;;;;5093798;28;20430;-77
2022/07/11 00:51:23;;;;;;;2.53;0.75;;;20.40;92.90;;;;;;5094262;28;20034;-77
2022/07/11 00:53:51;;;;;;;2.88;0.65;;;20.40;92.70;;;;;;5094089;28;20035;-77
2022/07/11 00:56:21;;;;;;;2.03;0.65;;;20.40;92.70;;;;;;5093714;28;20513;-77
2022/07/11 00:58:50;;;;;;;2.85;0.55;;;20.50;92.60;;;;;;5093727;28;20070;-77
2022/07/11 01:01:17;;;;;;;3.63;0.60;;;20.50;92.60;;;;;;5094099;28;20031;-77
2022/07/11 01:03:42;;;;;;;2.97;0.60;;;20.50;92.60;;;;;;5093896;28;20040;-77
2022/07/11 01:06:09;;;;;;;3.58;0.75;;;20.50;92.60;;;;;;5094519;28;20045;-77
2022/07/11 01:08:35;;;;;;;2.47;0.50;;;20.50;92.80;;;;;;5094025;28;20032;-76
2022/07/11 01:11:08;;;;;;;3.67;0.70;;;20.50;92.60;;;;;;5093855;28;20028;-77
2022/07/11 01:13:34;;;;;;;1.65;0.47;;;20.50;92.90;;;;;;5093656;28;20506;-77
2022/07/11 01:16:14;;;;;;;3.15;0.30;;;20.50;92.50;;;;;;5093874;28;20081;-78
2022/07/11 01:18:41;;;;;;;3.05;0.60;;;20.50;92.40;;;;;;5093637;28;20016;-76
2022/07/11 01:21:30;;;;;;;2.78;0.50;;;20.50;92.50;;;;;;5093614;28;20031;-77
2022/07/11 01:23:58;;;;;;;2.47;0.70;;;20.50;92.40;;;;;;5093383;28;20483;-76
2022/07/11 01:26:24;;;;;;;3.20;0.60;;;20.50;92.30;;;;;;5093503;28;20383;-76
2022/07/11 01:28:51;;;;;;;2.25;0.40;;;20.60;92.50;;;;;;5093392;28;20111;-77
2022/07/11 01:31:17;;;;;;;1.33;0.30;;;20.60;92.10;;;;;;5093163;28;20467;-77
2022/07/11 01:33:43;;;;;;;1.73;0.35;;;20.60;92.00;;;;;;5093451;28;20020;-76
2022/07/11 01:36:09;;;;;;;2.03;0.30;;;20.60;92.00;;;;;;5093426;28;20035;-76
2022/07/11 01:38:35;;;;;;;1.85;0.40;;;20.60;91.90;;;;;;5093301;28;20455;-77
2022/07/11 01:41:02;;;;;;;1.45;0.30;;;20.70;91.90;;;;;;5093639;28;20082;-77
2022/07/11 01:43:28;;;;;;;3.70;0.40;;;20.70;91.80;;;;;;5093137;28;20043;-77
2022/07/11 01:45:54;;;;;;;2.13;0.20;;;20.70;91.80;;;;;;5092982;28;20107;-75
2022/07/11 01:48:21;;;;;;;0.85;0.20;;;20.70;91.80;;;;;;5093509;28;20028;-77
2022/07/11 01:50:47;;;;;;;2.42;0.40;;;20.70;91.80;;;;;;5093138;28;20069;-77
2022/07/11 01:53:14;;;;;;;1.20;0.20;;;20.60;91.80;;;;;;5093426;28;20043;-77
2022/07/11 01:55:39;;;;;;;1.73;0.20;;;20.60;91.90;;;;;;5093529;28;20482;-77
2022/07/11 01:58:05;;;;;;;2.13;0.40;;;20.60;91.90;;;;;;5093304;28;20031;-76
2022/07/11 02:00:31;;;;;;;2.58;0.32;;;20.50;92.10;;;;;;5093397;28;20134;-76
2022/07/11 02:02:56;;;;;;;2.08;0.32;;;20.50;92.20;;;;;;5093652;28;20028;-76
2022/07/11 02:05:22;;;;;;;3.63;0.40;;;20.40;92.30;;;;;;5093851;28;20485;-76
2022/07/11 02:10:32;;;;;;;3.00;0.30;;;20.30;92.60;;;;;;5092726;28;20031;-77
2022/07/11 02:12:59;;;;;;;1.90;0.30;;;20.40;92.50;;;;;;5092900;28;20020;-77
2022/07/11 02:15:29;;;;;;;0.95;0.20;;;20.40;92.50;;;;;;5092932;28;20111;-77
2022/07/11 02:17:56;;;;;;;4.13;0.30;;;20.40;92.40;;;;;;5092811;28;20031;-77
2022/07/11 02:20:22;;;;;;;6.70;0.88;;;20.40;92.30;;;;;;5092646;28;20085;-77
2022/07/11 02:22:48;;;;;;;4.43;0.40;;;20.40;92.50;;;;;;5094229;28;20047;-78
2022/07/11 02:25:14;;;;;;;3.80;0.40;;;20.30;92.50;;;;;;5096985;28;20111;-78
2022/07/11 02:27:40;;;;;;;5.45;0.38;;;20.30;92.50;;;;;;5097165;28;20028;-78
2022/07/11 02:30:07;;;;;;;4.30;0.50;;;20.30;92.70;;;;;;5096805;28;20356;-78
2022/07/11 02:32:33;;;;;;;2.60;0.40;;;20.30;92.60;;;;;;5096555;28;20103;-78
2022/07/11 02:34:59;;;;;;;8.02;0.30;;;20.30;92.50;;;;;;5096894;28;20048;-78
2022/07/11 02:37:26;;;;;;;4.25;0.50;;;20.40;92.50;;;;;;5096427;28;20151;-78
2022/07/11 02:39:51;;;;;;;3.50;0.40;;;20.40;92.60;;;;;;5096828;28;20035;-78
2022/07/11 02:42:18;;;;;;;4.47;0.60;;;20.40;92.50;;;;;;5095997;28;20036;-78
2022/07/11 02:44:44;;;;;;;3.00;0.30;;;20.40;92.60;;;;;;5096667;28;20066;-77
2022/07/11 02:47:09;;;;;;;2.47;0.28;;;20.30;92.60;;;;;;5096218;28;20031;-77
2022/07/11 02:49:35;;;;;;;3.22;0.55;;;20.40;92.40;;;;;;5096165;28;20044;-78
2022/07/11 02:52:01;;;;;;;4.57;0.40;;;20.50;92.20;;;;;;5096256;28;20070;-77
2022/07/11 02:54:26;;;;;;;2.60;0.30;;;20.50;92.20;;;;;;5096280;28;20475;-77
2022/07/11 02:56:52;;;;;;;5.82;0.40;;;20.40;92.40;;;;;;5095999;28;20024;-77
2022/07/11 02:59:17;;;;;;;6.28;0.57;;;20.40;92.60;;;;;;5096275;28;20020;-76
2022/07/11 03:01:43;;;;;;;4.80;0.73;;;20.30;92.80;;;;;;5096600;28;20043;-75
2022/07/11 03:04:09;;;;;;;6.35;0.82;;;20.20;93.00;;;;;;5095688;28;20032;-75
2022/07/11 03:06:35;;;;;;;5.55;0.68;;;20.10;93.40;;;;;;5096126;28;20078;-76
2022/07/11 03:09:01;;;;;;;4.70;0.30;;;20.00;93.70;;;;;;5096138;28;20035;-76
2022/07/11 03:11:27;;;;;;;2.03;0.25;;;19.80;93.90;;;;;;5096039;28;20448;-77
2022/07/11 03:13:52;;;;;;;5.53;0.50;;;19.80;93.90;;;;;;5095845;28;20020;-76
2022/07/11 03:16:18;;;;;;;2.00;0.30;;;19.80;94.10;;;;;;5095635;28;20489;-76
2022/07/11 03:18:43;;;;;;;4.32;0.93;;;19.80;94.20;;;;;;5095368;28;20055;-77
2022/07/11 03:21:09;;;;;;;2.38;0.40;;;19.80;94.10;;;;;;5095863;28;20027;-76
2022/07/11 03:23:35;;;;;;;4.95;0.50;;;19.90;93.80;;;;;;5095357;28;20119;-76
2022/07/11 03:26:00;;;;;;;3.95;0.45;;;20.00;93.90;;;;;;5095762;28;20036;-76
2022/07/11 03:28:26;;;;;;;5.68;0.95;;;19.90;94.20;;;;;;5095558;28;20073;-77
2022/07/11 03:30:52;;;;;;;2.70;0.32;;;19.90;94.50;;;;;;5095697;28;20021;-77
2022/07/11 03:33:18;;;;;;;2.53;0.30;;;19.70;94.60;;;;;;5095193;28;20472;-77
2022/07/11 03:35:43;;;;;;;2.33;0.40;;;19.70;94.60;;;;;;5094626;28;20031;-77
2022/07/11 03:38:12;;;;;;;6.95;0.43;;;19.70;94.60;;;;;;5095030;28;20012;-76
2022/07/11 03:40:39;;;;;;;2.17;0.30;;;19.70;94.70;;;;;;5095524;28;20047;-76
2022/07/11 03:43:04;;;;;;;3.22;0.40;;;19.70;94.80;;;;;;5095100;28;20047;-77
2022/07/11 03:45:30;;;;;;;2.20;0.32;;;19.70;94.90;;;;;;5095006;28;20016;-77
2022/07/11 03:47:56;;;;;;;2.35;0.38;;;19.50;95.30;;;;;;5095166;28;20051;-77
2022/07/11 03:50:21;;;;;;;2.13;0.45;;;19.50;95.50;;;;;;5094903;28;20151;-77
2022/07/11 03:52:47;;;;;;;2.25;0.30;;;19.60;95.30;;;;;;5095405;28;20043;-77
2022/07/11 03:55:13;;;;;;;0.85;0.30;;;19.60;94.90;;;;;;5094989;28;20479;-78
2022/07/11 03:57:39;;;;;;;2.38;0.30;;;19.70;94.50;;;;;;5095838;28;20032;-78
2022/07/11 04:00:08;;;;;;;2.20;0.30;;;19.80;94.50;;;;;;5095734;28;20028;-77
2022/07/11 04:02:33;;;;;;;2.45;0.40;;;19.90;94.40;;;;;;5095049;28;20104;-77
2022/07/11 04:04:59;;;;;;;3.30;0.38;;;19.90;94.40;;;;;;5094730;28;20539;-78
2022/07/11 04:07:28;;;;;;;4.78;0.60;;;20.00;94.20;;;;;;5094411;28;20115;-78
2022/07/11 04:09:53;;;;;;;1.05;0.28;;;20.00;94.20;;;;;;5094641;28;20600;-78
2022/07/11 04:12:19;;;;;;;2.20;0.50;;;20.00;94.10;;;;;;5094669;28;20182;-76
2022/07/11 04:14:45;;;;;;;5.45;0.70;;;20.10;94.20;;;;;;5094371;28;20479;-77
2022/07/11 04:17:11;;;;;;;5.28;0.50;;;19.90;94.60;;;;;;5094826;28;20099;-77
2022/07/11 04:19:36;;;;;;;3.35;0.40;;;19.70;95.30;;;;;;5094476;28;20035;-77
2022/07/11 04:22:02;;;;;;;2.50;0.32;;;19.50;95.60;;;;;;5094392;28;20035;-76
2022/07/11 04:24:27;;;;;;;1.67;0.30;;;19.50;96.00;;;;;;5094357;28;20024;-76
2022/07/11 04:26:53;;;;;;;2.63;0.52;;;19.40;96.20;;;;;;5094351;28;20028;-77
2022/07/11 04:29:19;;;;;;;2.58;0.40;;;19.40;96.50;;;;;;5094211;28;20379;-77
2022/07/11 04:31:44;;;;;;;2.50;0.40;;;19.40;96.50;;;;;;5094543;28;20074;-77
2022/07/11 04:34:10;;;;;;;1.25;0.30;;;19.40;96.70;;;;;;5094302;28;20024;-77
2022/07/11 04:36:35;;;;;;;1.17;0.22;;;19.50;96.40;;;;;;5094256;28;20024;-77
2022/07/11 04:39:01;;;;;;;1.55;0.30;;;19.50;96.30;;;;;;5094208;28;20445;-77
2022/07/11 04:41:27;;;;;;;1.95;0.30;;;19.60;96.20;;;;;;5094200;28;20106;-77
2022/07/11 04:43:52;;;;;;;1.83;0.55;;;19.70;96.10;;;;;;5093748;28;20036;-77
2022/07/11 04:46:18;;;;;;;1.23;0.55;;;19.70;96.30;;;;;;5094040;28;20024;-78
2022/07/11 04:48:44;;;;;;;2.97;0.50;;;19.60;96.70;;;;;;5094111;28;20028;-77
2022/07/11 04:51:10;;;;;;;1.55;0.40;;;19.50;97.00;;;;;;5093949;28;20032;-76
2022/07/11 04:53:35;;;;;;;2.67;0.50;;;19.40;97.00;;;;;;5095266;28;20024;-76
2022/07/11 04:56:01;;;;;;;2.90;0.60;;;19.40;97.20;;;;;;5094193;28;20350;-76
2022/07/11 04:58:27;;;;;;;1.17;0.30;;;19.30;97.40;;;;;;5093893;28;20024;-76
2022/07/11 05:00:52;;;;;;;1.88;0.30;;;19.30;97.50;;;;;;5093979;28;20051;-77
2022/07/11 05:03:20;;;;;;;1.55;0.30;;;19.40;97.30;;;;;;5093907;28;20471;-76
2022/07/11 05:05:46;;;;;;;3.25;0.47;;;19.40;97.10;;;;;;5093767;28;20016;-77
2022/07/11 05:08:11;;;;;;;1.38;0.40;;;19.40;97.20;;;;;;5093412;28;20103;-77
2022/07/11 05:10:37;;;;;;;1.25;0.30;;;19.30;97.30;;;;;;5094053;28;20013;-77
2022/07/11 05:13:03;;;;;;;1.92;0.35;;;19.40;97.20;;;;;;5093430;28;20070;-76
2022/07/11 05:15:29;;;;;;;1.42;0.40;;;19.40;97.10;;;;;;5093757;28;20098;-76
2022/07/11 05:17:54;;;;;;;1.58;0.40;;;19.50;97.40;;;;;;5093618;28;20024;-76
2022/07/11 05:20:20;;;;;;;3.33;0.50;;;19.30;97.60;;;;;;5093681;28;20467;-77
2022/07/11 05:22:46;;;;;;;1.65;0.30;;;19.30;97.60;;;;;;5093745;28;20078;-78
2022/07/11 05:25:12;;;;;;;0.93;0.20;;;19.30;97.30;;;;;;5093751;28;20391;-77
2022/07/11 05:27:37;;;;;;;1.25;0.25;;;19.40;97.00;;;;;;5093469;28;20024;-77
2022/07/11 05:30:03;;;;;;;1.23;0.30;;;19.50;96.90;;;;;;5093344;28;20103;-77
2022/07/11 05:32:29;;;;;;;0.82;0.20;;;19.50;97.00;;;;;;5093341;28;20115;-76
2022/07/11 05:34:58;;;;;;;0.98;0.38;;;19.50;97.20;;;;;;5093468;28;20039;-77
2022/07/11 05:37:24;;;;;;;0.60;0.20;;;19.40;97.40;;;;;;5093371;28;20417;-77
2022/07/11 05:39:50;;;;;;;1.10;0.30;;;19.40;97.30;;;;;;5093197;28;20030;-76
2022/07/11 05:42:16;;;;;;;1.55;0.30;;;19.50;97.30;;;;;;5093259;28;20032;-77
2022/07/11 05:44:42;;;;;;;1.05;0.13;;;19.50;97.20;;;;;;5091993;28;20127;-80
2022/07/11 05:47:07;;;;;;;0.80;0.15;;;19.60;96.90;;;;;;5091986;28;20109;-75
2022/07/11 05:49:33;;;;;;;2.30;0.20;;;19.70;96.80;;;;;;5091116;28;20058;-75
2022/07/11 05:51:59;;;;;;;0.95;0.13;;;19.80;96.80;;;;;;5091255;28;20077;-76
2022/07/11 05:54:25;;;;;;;0.93;0.15;;;19.80;96.90;;;;;;5090566;28;20442;-77
2022/07/11 05:56:51;;;;;;;2.22;0.25;;;19.80;96.80;;;;;;5090861;28;20031;-76
2022/07/11 05:59:17;;;;;;;0.82;0.10;;;19.90;96.50;;;;;;5096277;28;20024;-76
2022/07/11 06:01:43;;;;;;;1.02;0.20;;;19.90;96.60;;;;;;5095776;28;20442;-76
2022/07/11 06:04:08;;;;;;;1.25;0.20;;;19.80;96.90;;;;;;5095262;28;20023;-76
2022/07/11 06:06:34;;;;;;;0.70;0.20;;;19.70;97.10;;;;;;5095297;28;20182;-77
2022/07/11 06:09:00;;;;;;;0.63;0.10;;;19.70;97.00;;;;;;5096021;28;20063;-74
2022/07/11 06:11:25;;;;;;;0.80;0.20;;;19.80;96.90;;;;;;5095412;28;20056;-74
2022/07/11 06:13:51;;;;;;;0.73;0.20;;;19.80;96.90;;;;;;5094479;28;20047;-75
2022/07/11 06:16:17;;;;;;;2.38;0.20;;;19.90;96.80;;;;;;5094317;28;20035;-75
2022/07/11 06:18:43;;;;;;;1.05;0.40;;;19.90;96.80;;;;;;5095886;28;20035;-78
2022/07/11 06:21:09;;;;;;;0.73;0.20;;;19.90;96.80;;;;;;5096564;28;20028;-78
2022/07/11 06:23:35;;;;;;;1.05;0.20;;;19.90;96.90;;;;;;5095426;28;20040;-78
2022/07/11 06:26:01;;;;;;;0.52;0.17;;;19.90;97.00;;;;;;5095263;28;20031;-78
2022/07/11 06:28:26;;;;;;;1.40;0.20;;;19.90;97.00;;;;;;5096113;28;20031;-77
2022/07/11 06:30:52;;;;;;;0.88;0.25;;;19.90;97.00;;;;;;5096006;28;20367;-78
2022/07/11 06:33:19;;;;;;;0.73;0.38;;;19.90;96.90;;;;;;5095021;28;20161;-78
2022/07/11 06:35:45;;;;;;;0.28;0.15;;;20.00;97.10;;;;;;5095750;28;20103;-76
2022/07/11 06:38:12;;;;;;;1.48;0.20;;;19.90;97.20;;;;;;5096214;28;20028;-76
2022/07/11 06:40:38;;;;;;;1.35;0.20;;;19.80;97.30;;;;;;5095635;28;20032;-76
2022/07/11 06:43:05;;;;;;;0.70;0.20;;;19.80;97.40;;;;;;5093754;28;20039;-75
2022/07/11 06:45:31;;;;;;;1.70;0.10;;;19.80;97.40;;;;;;5095548;28;20024;-75
2022/07/11 06:47:56;;;;;;;0.50;0.10;;;19.90;97.60;;;;;;5098513;28;20042;-80
2022/07/11 06:50:22;;;;;;;0.85;0.20;;;19.90;97.20;;;;;;5099506;28;20102;-78
2022/07/11 06:52:48;;;;;;;0.82;0.10;;;20.00;97.10;;;;;;5096063;28;20020;-78
2022/07/11 06:55:14;;;;;;;1.30;0.10;;;20.00;97.20;;;;;;5095775;28;20047;-77
2022/07/11 06:57:39;;;;;;;0.77;0.10;;;20.00;97.10;;;;;;5095511;28;20059;-79
2022/07/11 07:00:08;;;;;;;1.65;0.10;;;20.10;96.90;;;;;;5095788;28;20059;-79
2022/07/11 07:02:34;;;;;;;1.88;0.10;;;20.20;96.60;;;;;;5095816;28;20044;-79
2022/07/11 07:05:01;;;;;;;0.88;0.10;;;20.30;96.40;;;;;;5095263;28;20020;-79
2022/07/11 07:07:26;;;;;;;0.65;0.10;;;20.40;96.30;;;;;;5095653;28;20123;-80
2022/07/11 07:09:54;;;;;;;0.90;0.20;;;20.40;96.50;;;;;;5095642;28;20101;-82
2022/07/11 07:12:22;;;;;;;0.70;0.10;;;20.30;96.60;;;;;;5094561;28;20055;-79
2022/07/11 07:14:48;;;;;;;0.30;0.10;;;20.30;96.70;;;;;;5094050;28;20024;-78
2022/07/11 07:17:14;;;;;;;0.57;0.10;;;20.30;96.50;;;;;;5094149;28;20039;-77
2022/07/11 07:19:40;;;;;;;1.20;0.10;;;20.30;96.50;;;;;;5093591;28;20379;-77
2022/07/11 07:22:06;;;;;;;1.00;0.10;;;20.20;96.70;;;;;;5094788;28;20050;-77
2022/07/11 07:24:32;;;;;;;2.20;0.10;;;20.30;96.70;;;;;;5095342;28;20536;-79
2022/07/11 07:26:59;;;;;;;0.35;0.10;;;20.30;96.70;;;;;;5095770;28;20027;-79
2022/07/11 07:29:26;;;;;;;1.08;0.30;;;20.10;96.80;;;;;;5095075;28;20042;-78
2022/07/11 07:31:52;;;;;;;0.43;0.10;;;20.10;97.10;;;;;;5095217;28;20016;-77
2022/07/11 07:34:19;;;;;;;0.22;0.00;;;20.20;97.20;;;;;;5095096;28;20074;-79
2022/07/11 07:36:44;;;;;;;0.98;0.30;;;20.30;97.00;;;;;;5095382;28;20024;-78
2022/07/11 07:39:10;;;;;;;1.65;0.10;;;20.40;96.90;;;;;;5095493;28;20097;-78
2022/07/11 07:41:36;;;;;;;0.93;0.32;;;20.40;96.60;;;;;;5105997;28;20032;-77
2022/07/11 07:44:02;;;;;;;0.30;0.20;;;20.30;96.60;;;;;;5109386;28;20035;-78
2022/07/11 07:46:28;;;;;;;1.02;0.20;;;20.40;96.40;;;;;;5098862;28;20391;-78
2022/07/11 07:48:54;;;;;;;0.98;0.20;;;20.50;96.40;;;;;;5093666;28;20072;-78
2022/07/11 07:51:21;;;;;;;0.40;0.10;;;20.50;96.30;;;;;;5093651;28;20089;-77
2022/07/11 07:53:47;;;;;;;0.35;0.10;;;20.60;96.50;;;;;;5093144;28;20024;-78
2022/07/11 07:56:12;;;;;;;0.45;0.10;;;20.60;96.20;;;;;;5094642;28;20367;-77
2022/07/11 07:58:38;;;;;;;0.73;0.10;;;20.70;95.90;;;;;;5093770;28;20103;-76
2022/07/11 08:03:49;;;;;;;0.50;0.10;;;20.70;95.90;;;;;;5093263;28;20047;-76
2022/07/11 08:06:14;;;;;;;0.45;0.20;;;20.60;96.10;;;;;;5093831;28;20391;-78
2022/07/11 08:08:40;;;;;;;0.73;0.10;;;20.60;96.20;;;;;;5093746;28;20023;-78
2022/07/11 08:11:05;;;;;;;0.20;0.05;;;20.60;96.30;;;;;;5093545;28;20035;-76
2022/07/11 08:13:31;;;;;;;0.60;0.10;;;20.60;96.30;;;;;;5093242;28;20047;-77
2022/07/11 08:15:57;;;;;;;3.60;0.10;;;20.60;96.40;;;;;;5092969;28;20107;-78
2022/07/11 08:18:22;;;;;;;0.15;0.03;;;20.70;96.40;;;;;;5092438;28;20058;-77
2022/07/11 08:20:48;;;;;;;0.10;0.00;;;20.70;96.40;;;;;;5092948;28;20036;-79
2022/07/11 08:23:13;;;;;;;0.93;0.43;;;20.80;96.10;;;;;;5093958;28;20086;-78
2022/07/11 08:25:40;;;;;;;0.20;0.05;;;20.80;96.00;;;;;;5094085;28;20111;-77
2022/07/11 08:28:05;;;;;;;0.30;0.08;;;20.80;95.90;;;;;;5092443;28;20441;-76
2022/07/11 08:30:31;;;;;;;0.38;0.00;;;20.70;95.70;;;;;;5093014;28;20016;-77
2022/07/11 08:32:57;;;;;;;0.85;0.10;;;20.60;95.60;;;;;;5093066;28;20120;-77
2022/07/11 08:35:23;;;;;;;0.28;0.00;;;20.60;95.70;;;;;;5093525;28;20514;-75
2022/07/11 08:37:49;;;;;;;0.30;0.10;;;20.60;95.90;;;;;;5105637;28;20024;-71
2022/07/11 08:40:14;;;;;;;0.73;0.03;;;20.60;96.20;;;;;;5100645;28;20024;-75
2022/07/11 08:42:42;;;;;;;0.47;0.10;;;20.60;96.30;;;;;;5092400;28;20488;-76
2022/07/11 08:45:17;;;;;;;0.30;0.10;;;20.60;96.30;;;;;;5092502;28;20021;-74
2022/07/11 08:47:44;;;;;;;0.35;0.05;;;20.70;96.30;;;;;;5092778;28;20024;-74
2022/07/11 08:50:11;;;;;;;0.10;0.00;;;20.80;95.90;;;;;;5092639;28;20040;-76
2022/07/11 08:52:38;;;;;;;0.70;0.00;;;20.80;95.70;;;;;;5093143;28;20028;-75
2022/07/11 08:55:07;;;;;;;0.57;0.00;;;20.80;95.40;;;;;;5091945;28;20387;-76
2022/07/11 08:57:36;;;;;;;0.88;0.10;;;20.80;95.50;;;;;;5093281;28;20654;-75
2022/07/11 09:00:08;;;;;;;0.30;0.10;;;20.70;95.50;;;;;;5093582;28;20019;-75
2022/07/11 09:02:35;;;;;;;1.25;0.10;;;20.60;95.70;;;;;;5090217;28;20036;-75
2022/07/11 09:05:05;;;;;;;1.35;0.10;;;20.50;95.70;;;;;;5091947;28;20038;-77
2022/07/11 09:07:32;;;;;;;0.85;0.10;;;20.40;95.90;;;;;;5092264;28;20113;-76
2022/07/11 09:09:57;;;;;;;0.25;0.10;;;20.40;96.00;;;;;;5092233;28;20043;-76
2022/07/11 09:12:23;;;;;;;0.30;0.10;;;20.40;96.20;;;;;;5092008;28;20109;-76
2022/07/11 09:14:53;;;;;;;1.40;0.10;;;20.40;96.40;;;;;;5092015;28;20022;-75
2022/07/11 09:17:27;;;;;;;0.20;0.10;;;20.40;96.50;;;;;;5092064;28;20111;-75
2022/07/11 09:19:53;;;;;;;0.03;0.00;;;20.40;96.40;;;;;;5092295;28;20095;-76
2022/07/11 09:27:56;;;;;;;0.88;0.10;;;20.50;96.20;;;;;;5093428;28;20028;-79
2022/07/11 09:30:26;;;;;;;1.38;0.20;;;20.60;96.10;;;;;;5093087;28;20027;-78
2022/07/11 09:33:03;;;;;;;0.80;0.10;;;20.60;95.80;;;;;;5100670;28;20046;-77
2022/07/11 09:35:37;;;;;;;0.98;0.10;;;20.60;95.60;;;;;;5094505;28;20029;-78
2022/07/11 09:38:07;;;;;;;1.08;0.30;;;20.60;95.70;;;;;;5092082;28;20554;-77
2022/07/11 09:40:33;;;;;;;0.50;0.20;;;20.60;95.70;;;;;;5095197;28;20036;-78
2022/07/11 09:43:00;;;;;;;0.70;0.10;;;20.50;95.90;;;;;;5103035;28;20036;-77
2022/07/11 09:45:30;;;;;;;1.00;0.28;;;20.50;96.00;;;;;;5096873;28;20028;-76
2022/07/11 09:47:58;;;;;;;1.05;0.20;;;20.50;96.10;;;;;;5107647;28;20034;-76
2022/07/11 09:50:29;;;;;;;0.63;0.20;;;20.50;96.10;;;;;;5103397;28;20403;-76
2022/07/11 09:53:16;;;;;;;1.35;0.20;;;20.50;95.90;;;;;;5092543;28;20356;-77
2022/07/11 09:55:48;;;;;;;0.28;0.10;;;20.40;95.70;;;;;;5091152;28;20379;-77
2022/07/11 09:58:16;;;;;;;0.85;0.10;;;20.40;95.80;;;;;;5091267;28;20032;-77
2022/07/11 10:00:43;;;;;;;0.60;0.20;;;20.40;95.90;;;;;;5105127;28;20107;-75
2022/07/11 10:03:11;;;;;;;0.77;0.20;;;20.50;95.90;;;;;;5107002;28;20036;-78
2022/07/11 10:05:37;;;;;;;0.77;0.10;;;20.50;96.40;;;;;;5092188;28;20012;-77
2022/07/11 10:08:04;;;;;;;0.77;0.20;;;20.50;96.20;;;;;;5091557;28;20735;-76
2022/07/11 10:10:31;;;;;;;0.43;0.13;;;20.50;96.00;;;;;;5091826;28;20370;-75
2022/07/11 10:12:57;;;;;;;2.05;0.10;;;20.50;96.30;;;;;;5091335;28;20017;-77
2022/07/11 10:15:29;;;;;;;0.20;0.10;;;20.60;96.30;;;;;;5091043;28;20035;-78
2022/07/11 10:18:17;;;;;;;1.85;0.20;;;20.70;95.90;;;;;;5091077;28;20028;-79
2022/07/11 10:21:22;;;;;;;0.65;0.10;;;20.80;95.80;;;;;;5088425;28;20064;-77
2022/07/11 10:23:59;;;;;;;1.73;0.10;;;20.80;95.50;;;;;;5088653;28;20044;-77
2022/07/11 10:26:30;;;;;;;1.05;0.13;;;20.90;95.40;;;;;;5089063;28;20268;-77
2022/07/11 10:29:05;;;;;;;0.38;0.10;;;21.00;95.30;;;;;;5094656;28;20104;-76
2022/07/11 10:31:31;;;;;;;0.30;0.10;;;21.00;94.70;;;;;;5108050;28;20103;-77
2022/07/11 10:34:02;;;;;;;0.70;0.20;;;21.00;94.60;;;;;;5101338;28;20020;-79
2022/07/11 10:36:30;;;;;;;1.90;0.10;;;21.00;94.60;;;;;;5090494;28;20475;-78
2022/07/11 10:39:24;;;;;;;1.67;0.20;;;21.00;94.80;;;;;;5091352;28;20054;-79
2022/07/11 10:41:50;;;;;;;3.03;0.17;;;20.90;94.80;;;;;;5088424;28;20146;-77
2022/07/11 10:44:17;;;;;;;1.88;0.20;;;20.90;94.90;;;;;;5092826;28;20031;-78
2022/07/11 10:46:43;;;;;;;0.88;0.10;;;20.80;95.00;;;;;;5094547;28;20424;-77
2022/07/11 10:49:18;;;;;;;0.35;0.10;;;20.90;95.20;;;;;;5094559;28;20127;-78
2022/07/11 10:52:06;;;;;;;0.30;0.00;;;20.90;95.30;;;;;;5094746;28;20099;-77
2022/07/11 10:54:55;;;;;;;0.90;0.10;;;20.90;95.30;;;;;;5093932;28;20031;-77
2022/07/11 10:57:34;;;;;;;0.32;0.10;;;21.00;95.40;;;;;;5093892;28;20024;-77
2022/07/11 11:00:02;;;;;;;1.75;0.10;;;21.10;95.30;;;;;;5094884;28;20506;-77
2022/07/11 11:02:29;;;;;;;0.63;0.13;;;21.30;94.80;;;;;;5094090;28;20395;-77
2022/07/11 11:05:00;;;;;;;0.13;0.10;;;21.40;95.00;;;;;;5095730;28;20028;-77
2022/07/11 11:07:35;;;;;;;2.35;0.10;;;21.40;94.90;;;;;;5094931;28;20054;-77
2022/07/11 11:10:04;;;;;;;0.85;0.10;;;21.50;94.50;;;;;;5094308;28;20102;-78
2022/07/11 11:13:04;;;;;;;0.10;0.03;;;21.40;94.10;;;;;;5094216;28;20479;-80
2022/07/11 11:15:50;;;;;;;0.60;0.10;;;21.40;94.20;;;;;;5094202;28;20023;-77
2022/07/11 11:18:36;;;;;;;0.20;0.00;;;21.50;94.30;;;;;;5093087;28;20020;-80
2022/07/11 11:21:09;;;;;;;0.20;0.10;;;21.50;94.20;;;;;;5093578;28;20387;-80
2022/07/11 11:23:44;;;;;;;0.63;0.10;;;21.40;94.20;;;;;;5093422;28;20133;-81
2022/07/11 11:26:18;;;;;;;1.27;0.20;;;21.50;94.30;;;;;;5093879;28;20016;-79
2022/07/11 11:29:02;;;;;;;1.40;0.20;;;21.50;94.30;;;;;;5094360;28;20479;-77
2022/07/11 11:31:30;;;;;;;0.80;0.20;;;21.40;94.20;;;;;;5094509;28;20169;-77
2022/07/11 11:33:56;;;;;;;0.75;0.10;;;21.40;94.20;;;;;;5094229;28;20031;-81
2022/07/11 11:36:23;;;;;;;0.70;0.20;;;21.40;94.50;;;;;;5092675;28;20036;-81
2022/07/11 11:38:50;;;;;;;0.60;0.10;;;21.40;94.60;;;;;;5092738;28;20502;-82
2022/07/11 11:41:23;;;;;;;1.83;0.30;;;21.40;94.60;;;;;;5092871;28;20059;-83
2022/07/11 11:43:49;;;;;;;0.43;0.20;;;21.40;94.70;;;;;;5093630;28;20060;-80
2022/07/11 11:46:15;;;;;;;0.90;0.10;;;21.50;94.70;;;;;;5093828;28;20073;-81
2022/07/11 11:48:49;;;;;;;0.50;0.20;;;21.50;94.60;;;;;;5093716;28;20487;-80
2022/07/11 11:51:20;;;;;;;0.45;0.20;;;21.50;94.50;;;;;;5094443;28;20031;-82
2022/07/11 11:54:04;;;;;;;0.88;0.20;;;21.40;94.60;;;;;;5093543;28;20024;-80
2022/07/11 11:56:33;;;;;;;0.82;0.20;;;21.40;94.70;;;;;;5093723;28;20028;-79
2022/07/11 11:59:15;;;;;;;0.50;0.10;;;21.40;94.70;;;;;;5093502;28;20520;-77
2022/07/11 12:01:46;;;;;;;0.85;0.20;;;21.40;94.70;;;;;;5093438;28;20024;-81
2022/07/11 12:04:14;;;;;;;0.55;0.20;;;21.40;94.70;;;;;;5093774;28;20387;-80
2022/07/11 12:06:46;;;;;;;1.33;0.20;;;21.50;94.70;;;;;;5093848;28;20024;-81
2022/07/11 12:09:17;;;;;;;1.75;0.20;;;21.40;94.70;;;;;;5094289;28;20107;-80
2022/07/11 12:12:43;;;;;;;3.10;0.20;;;21.50;94.80;;;;;;5092617;28;20028;-78
2022/07/11 12:14:34;;;;;;;0.40;0.17;;;21.50;94.80;;;;;;5091547;28;20591;-78
2022/07/11 12:16:59;;;;;;;0.55;0.22;;;21.50;94.80;;;;;;5092111;28;20131;-78
2022/07/11 12:19:32;;;;;;;0.80;0.20;;;21.60;94.70;;;;;;5092649;28;20046;-75
2022/07/11 12:21:59;;;;;;;0.50;0.20;;;21.50;94.70;;;;;;5105490;28;20036;-79
2022/07/11 12:24:28;;;;;;;0.65;0.10;;;21.60;94.80;;;;;;5109940;28;20551;-78
2022/07/11 12:26:54;;;;;;;0.77;0.20;;;21.60;94.80;;;;;;5098221;28;20075;-79
2022/07/11 12:29:22;;;;;;;0.32;0.10;;;21.70;94.70;;;;;;5095083;28;20024;-80
2022/07/11 12:31:56;;;;;;;0.75;0.10;;;21.60;94.60;;;;;;5091937;28;20098;-82
2022/07/11 12:34:32;;;;;;;0.60;0.15;;;21.60;94.60;;;;;;5089798;28;20023;-80
2022/07/11 12:37:12;;;;;;;0.20;0.10;;;21.60;94.50;;;;;;5091619;28;20134;-80
2022/07/11 12:39:40;;;;;;;0.40;0.05;;;21.60;94.60;;;;;;5091896;28;20046;-80
2022/07/11 12:42:35;;;;;;;1.73;0.10;;;21.60;94.60;;;;;;5091898;28;20031;-81
2022/07/11 12:45:11;;;;;;;1.40;0.10;;;21.60;94.50;;;;;;5091826;28;20028;-77
2022/07/11 12:47:48;;;;;;;0.10;0.00;;;21.40;94.70;;;;;;5090708;28;20085;-79
2022/07/11 12:50:14;;;;;;;0.30;0.00;;;21.40;94.60;;;;;;5091131;28;20570;-79
2022/07/11 12:52:41;;;;;;;1.27;0.00;;;21.50;94.50;;;;;;5091643;28;20111;-81
2022/07/11 12:55:11;;;;;;;0.30;0.00;;;21.60;94.30;;;;;;5092023;28;20107;-81
2022/07/11 12:57:37;;;;;;;0.57;0.10;;;21.60;94.20;;;;;;5091524;28;20024;-81
2022/07/11 13:00:16;;;;;;;0.10;0.00;;;21.70;93.70;;;;;;5091140;28;20039;-80
2022/07/11 13:02:48;;;;;;;0.40;0.00;;;21.70;93.30;;;;;;5090365;28;20042;-79